Flight Track Log - Related Links

Times and Time Zones

All times are in EDT time to prevent confusion due to time zone crossing. See the UAL89 flight status page for this flight to view local times or setup timezone preferences in your user account.

Time Position Orientation Groundspeed Altitude Reporting Facility
EDT Latitude Longitude Course Direction KTS MPH feet Rate Location/Type
Mon 13:19:11 40.6500 -74.1833 229° Southwest 184 212 1,900  Level New York TRACON
Mon 13:20:06 40.6167 -74.2333 360° North 225 259 3,200 1,252 Climbing New York TRACON
Mon 13:21:54 40.7261 -74.2342 38° Northeast 277 319 5,300 1,154 Climbing FlightAware ADS-B
Mon 13:22:16 40.7483 -74.2115 46° Northeast 277 319 5,700 933 Climbing FlightAware ADS-B
Mon 13:22:39 40.7681 -74.1846 64° Northeast 278 320 6,000 1,034 Climbing FlightAware ADS-B
Mon 13:22:45 40.7715 -74.1753 73° East 282 325 6,200 2,571 Climbing FlightAware ADS-B
Mon 13:22:53 40.7750 -74.1605 82° East 284 327 6,600 2,842 Climbing FlightAware ADS-B
Mon 13:23:04 40.7769 -74.1432 93° East 284 327 7,100 2,800 Climbing FlightAware ADS-B
Mon 13:23:08 40.7766 -74.1364 98° East 283 326 7,300 3,000 Climbing FlightAware ADS-B
Mon 13:23:12 40.7758 -74.1290 102° East 283 326 7,500 2,250 Climbing FlightAware ADS-B
Mon 13:23:16 40.7747 -74.1223 105° East 285 328 7,600 1,895 Climbing FlightAware ADS-B
Mon 13:23:31 40.7693 -74.0961 105° East 290 334 8,100 2,348 Climbing FlightAware ADS-B
Mon 13:23:39 40.7667 -74.0832 96° East 290 334 8,500 2,667 Climbing FlightAware ADS-B
Mon 13:23:49 40.7653 -74.0654 83° East 290 334 8,900 1,875 Climbing FlightAware ADS-B
Mon 13:23:55 40.7663 -74.0544 75° East 292 336 9,000 1,385 Climbing FlightAware ADS-B
Mon 13:24:02 40.7689 -74.0419 69° East 296 341 9,200 1,765 Climbing FlightAware ADS-B
Mon 13:24:12 40.7738 -74.0253 67° East 300 345 9,500 1,333 Climbing FlightAware ADS-B
Mon 13:24:29 40.7833 -73.9957 60° Northeast 313 360 9,800 1,000 Climbing FlightAware ADS-B
Mon 13:24:30 40.7836 -73.9950 66° East 317 365 9,800  Level FlightAware ADS-B
Mon 13:24:45 40.7929 -73.9671 67° East 336 387 9,800  Level FlightAware ADS-B
Mon 13:24:47 40.7941 -73.9634 66° East 339 390 9,800 -353 Level FlightAware ADS-B
Mon 13:25:02 40.8046 -73.9324 67° East 360 414 9,700 -353 Descending FlightAware ADS-B
Mon 13:25:04 40.8056 -73.9293 66° East 360 414 9,700 375 Level FlightAware ADS-B
Mon 13:25:18 40.8152 -73.9005 67° East 365 420 9,800 353 Climbing FlightAware ADS-B
Mon 13:25:21 40.8170 -73.8949 64° Northeast 365 420 9,800 -545 Level FlightAware ADS-B
Mon 13:25:29 40.8231 -73.8780 60° Northeast 368 423 9,700 -400 Descending FlightAware ADS-B
Mon 13:25:36 40.8292 -73.8640 57° Northeast 368 423 9,700  Level FlightAware ADS-B
Mon 13:25:38 40.8306 -73.8612 45° Northeast 368 423 9,700 273 Level FlightAware ADS-B
Mon 13:25:58 40.8549 -73.8286 33° Northeast 370 426 9,800 261 Climbing FlightAware ADS-B
Mon 13:26:01 40.8585 -73.8255 32° Northeast 369 425 9,800 2,571 Level FlightAware ADS-B
Mon 13:26:33 40.9047 -73.7880 32° Northeast 371 427 11,300 2,364 Climbing FlightAware ADS-B
Mon 13:27:07 40.9540 -73.7471 32° Northeast 373 429 12,400 1,754 Climbing FlightAware ADS-B
Mon 13:27:38 41.0003 -73.7090 32° Northeast 381 438 13,200 1,364 Climbing FlightAware ADS-B
Mon 13:28:13 41.0540 -73.6649 32° Northeast 393 452 13,900 1,478 Climbing FlightAware ADS-B
Mon 13:28:47 41.1089 -73.6199 32° Northeast 410 472 14,900 1,846 Climbing FlightAware ADS-B
Mon 13:29:18 41.1593 -73.5787 32° Northeast 415 478 15,900 1,869 Climbing FlightAware ADS-B
Mon 13:29:48 41.2091 -73.5377 32° Northeast 416 479 16,800 1,742 Climbing FlightAware ADS-B
Mon 13:30:20 41.2612 -73.4948 32° Northeast 420 483 17,700 1,622 Climbing FlightAware ADS-B
Mon 13:31:39 41.3930 -73.3862 26° Northeast 424 488 19,800 1,385 Climbing FlightAware ADS-B
Mon 13:32:17 41.4464 -73.3511 North 417 480 20,400 1,152 Climbing Boston Center
Mon 13:33:18 41.5611 -73.3333 358° North 417 480 21,700 1,400 Climbing Boston Center
Mon 13:34:17 41.6842 -73.3381 359° North 417 480 23,200 1,361 Climbing Boston Center
Mon 13:35:17 41.8092 -73.3397 359° North 428 493 24,400 1,150 Climbing Boston Center
Mon 13:36:17 41.9319 -73.3414 North 439 505 25,500 1,100 Climbing Boston Center
Mon 13:37:17 42.0614 -73.3378 North 444 511 26,600 1,000 Climbing Boston Center
Mon 13:38:17 42.1928 -73.3228 North 456 525 27,500 900 Climbing Boston Center
Mon 13:39:17 42.3242 -73.3078 North 467 537 28,400 800 Climbing Boston Center
Mon 13:40:17 42.4597 -73.2817 North 478 550 29,100 800 Climbing Boston Center
Mon 13:41:17 42.5933 -73.2636 North 483 556 30,000 1,000 Climbing Boston Center
Mon 13:42:17 42.7228 -73.2428 26° Northeast 483 556 31,100 1,000 Climbing Boston Center
Mon 13:43:17 42.8483 -73.1594 25° Northeast 477 549 32,000 950 Climbing Boston Center
Mon 13:44:17 42.9864 -73.0731 26° Northeast 484 557 33,000 500 Climbing Boston Center
Mon 13:45:17 43.1078 -72.9917 18° North 484 557 33,000  Level Boston Center
Mon 13:46:17 43.2308 -72.9358 12° North 479 551 33,000  Level Boston Center
Mon 13:47:17 43.3622 -72.8969 North 479 551 33,000  Level Boston Center
Mon 13:48:17 43.4936 -72.8836 North 472 543 33,000  Level Boston Center
Mon 13:49:17 43.6250 -72.8675 North 472 543 33,000  Level Boston Center
Mon 13:50:17 43.7397 -72.8511 North 466 536 33,000  Level Boston Center
Mon 13:51:17 43.8689 -72.8317 North 466 536 33,000  Level Boston Center
Mon 13:52:17 44.0128 -72.8153 North 461 531 33,000  Level Boston Center
Mon 13:53:17 44.1419 -72.7989 North 461 531 33,000  Level Boston Center
Mon 13:54:18 44.2733 -72.7822 North 467 537 33,000  Level Boston Center
Mon 13:55:17 44.4025 -72.7656 North 467 537 33,000  Level Boston Center
Mon 13:56:17 44.5317 -72.7517 North 462 532 33,000  Level Boston Center
Mon 13:57:17 44.6608 -72.7347 North 467 537 33,000  Level Boston Center
Mon 13:58:02 44.7500 -72.7167 North 470 541 33,000  Level Montreal Center
Mon 13:59:02 44.8833 -72.7000 360° North 470 541 33,000  Level Montreal Center
Mon 14:00:02 45.0000 -72.7000 355° North 470 541 33,000  Level Montreal Center
Mon 14:01:02 45.1333 -72.7167 North 480 552 33,000  Level Montreal Center
Mon 14:02:02 45.2667 -72.7000 360° North 480 552 33,000  Level Montreal Center
Mon 14:03:02 45.4167 -72.7000 North 470 541 33,000  Level Montreal Center
Mon 14:04:02 45.5500 -72.6833 355° North 470 541 33,000  Level Montreal Center
Mon 14:05:02 45.6833 -72.7000 360° North 470 541 33,000  Level Montreal Center
Mon 14:06:02 45.8167 -72.7000 North 470 541 33,000  Level Montreal Center
Mon 14:07:02 45.9333 -72.6833 360° North 470 541 33,000  Level Montreal Center
Mon 14:08:02 46.0667 -72.6833 North 470 541 33,000  Level Montreal Center
Mon 14:09:02 46.2000 -72.6667 355° North 470 541 33,000  Level Montreal Center
Mon 14:10:02 46.3333 -72.6833 360° North 470 541 33,000  Level Montreal Center
Mon 14:11:02 46.4667 -72.6833 North 470 541 33,000  Level Montreal Center
Mon 14:12:02 46.5833 -72.6667 360° North 470 541 33,000  Level Montreal Center
Mon 14:13:02 46.7167 -72.6667 355° North 470 541 33,000  Level Montreal Center
Mon 14:14:02 46.8500 -72.6833 North 460 529 33,000  Level Montreal Center
Mon 14:15:02 46.9833 -72.6667 360° North 460 529 33,000  Level Montreal Center
Mon 14:16:02 47.1000 -72.6667 North 460 529 33,000  Level Montreal Center
Mon 14:17:02 47.2167 -72.6500 360° North 460 529 33,000  Level Montreal Center
Mon 14:18:02 47.3500 -72.6500 355° North 460 529 33,000  Level Montreal Center
Mon 14:19:02 47.4833 -72.6667 North 460 529 33,000  Level Montreal Center
Mon 14:20:02 47.6167 -72.6500 360° North 460 529 33,000  Level Montreal Center
Mon 14:21:02 47.7333 -72.6500 North 450 518 33,000  Level Montreal Center
Mon 14:22:02 47.8667 -72.6333 355° North 450 518 33,000  Level Montreal Center
Mon 14:23:02 47.9833 -72.6500 360° North 450 518 33,000  Level Montreal Center
Mon 14:24:02 48.1333 -72.6500 North 450 518 33,000  Level Montreal Center
Mon 14:25:02 48.2500 -72.6333 360° North 450 518 33,000  Level Montreal Center
Mon 14:26:02 48.3833 -72.6333 North 450 518 33,000  Level Montreal Center
Mon 14:27:02 48.5000 -72.6167 355° North 450 518 33,000  Level Montreal Center
Mon 14:28:02 48.6333 -72.6333 360° North 450 518 33,000  Level Montreal Center
Mon 14:29:02 48.7500 -72.6333 North 450 518 33,000  Level Montreal Center
Mon 14:30:02 48.8833 -72.6167 360° North 450 518 33,000  Level Montreal Center
Mon 14:31:02 49.0000 -72.6167 North 450 518 33,000  Level Montreal Center
Mon 14:32:02 49.1333 -72.6000 North 450 518 33,000  Level Montreal Center
Mon 14:33:02 49.2500 -72.5833 360° North 450 518 33,000  Level Montreal Center
Mon 14:34:02 49.3833 -72.5833 North 450 518 33,000  Level Montreal Center
Mon 14:35:02 49.5167 -72.5500 North 450 518 33,000  Level Montreal Center
Mon 14:36:02 49.6333 -72.5333 North 460 529 33,000  Level Montreal Center
Mon 14:37:02 49.7667 -72.5000 360° North 450 518 33,000  Level Montreal Center
Mon 14:38:02 49.8833 -72.5000 14° North 460 529 33,000  Level Montreal Center
Mon 14:39:02 50.0167 -72.4500 10° North 450 518 33,000  Level Montreal Center
Mon 14:40:02 50.1333 -72.4167 360° North 450 518 33,000  Level Montreal Center
Mon 14:41:02 50.2667 -72.4167 10° North 450 518 33,000  Level Montreal Center
Mon 14:42:02 50.3833 -72.3833 North 450 518 33,000  Level Montreal Center
Mon 14:43:02 50.5167 -72.3667 10° North 450 518 33,000  Level Montreal Center
Mon 14:44:02 50.6333 -72.3333 North 450 518 33,000  Level Montreal Center
Mon 14:45:02 50.7667 -72.3167 10° North 450 518 33,000  Level Montreal Center
Mon 14:46:02 50.8833 -72.2833 North 450 518 33,000  Level Montreal Center
Mon 14:47:02 51.0000 -72.2667 North 450 518 33,000  Level Montreal Center
Mon 14:48:02 51.1500 -72.2333 10° North 440 506 33,000  Level Montreal Center
Mon 14:49:02 51.2667 -72.2000 North 450 518 33,000  Level Montreal Center
Mon 14:50:02 51.4000 -72.1833 10° North 440 506 33,000  Level Montreal Center
Mon 14:51:02 51.5167 -72.1500 North 440 506 33,000  Level Montreal Center
Mon 14:52:02 51.6333 -72.1333 10° North 430 495 33,000  Level Montreal Center
Mon 14:53:02 51.7500 -72.1000 North 430 495 33,000  Level Montreal Center
Mon 14:54:02 51.8833 -72.0833 10° North 430 495 33,000  Level Montreal Center
Mon 14:55:02 52.0000 -72.0500 360° North 430 495 33,000  Level Montreal Center
Mon 14:56:02 52.1167 -72.0500 15° North 430 495 33,000  Level Montreal Center
Mon 14:57:02 52.2333 -72.0000 360° North 440 506 33,000  Level Montreal Center
Mon 14:58:02 52.3667 -72.0000 15° North 440 506 33,000  Level Montreal Center
Mon 14:59:02 52.4833 -71.9500 360° North 440 506 33,000  Level Montreal Center
Mon 15:00:02 52.6000 -71.9500 15° North 440 506 33,000  Level Montreal Center
Mon 15:01:02 52.7167 -71.9000 10° North 440 506 33,000  Level Montreal Center
Mon 15:02:02 52.8333 -71.8667 North 430 495 33,000  Level Montreal Center
Mon 15:03:02 52.9667 -71.8500 10° North 440 506 33,000  Level Montreal Center
Mon 15:04:02 53.0833 -71.8167 14° North 430 495 33,000  Level Montreal Center
Mon 15:05:02 53.2000 -71.7667 19° North 430 495 33,000  Level Montreal Center
Mon 15:06:02 53.3167 -71.7000 10° North 430 495 33,000  Level Montreal Center
Mon 15:07:02 53.4333 -71.6667 10° North 430 495 33,000  Level Montreal Center
Mon 15:08:02 53.5500 -71.6333 23° Northeast 430 495 33,000  Level Montreal Center
Mon 15:09:02 53.6667 -71.5500 10° North 430 495 33,000  Level Montreal Center
Mon 15:10:02 53.7833 -71.5167 10° North 430 495 33,000  Level Montreal Center
Mon 15:11:02 53.9000 -71.4833 14° North 430 495 33,000  Level Montreal Center
Mon 15:12:02 54.0167 -71.4333 19° North 430 495 33,000  Level Montreal Center
Mon 15:13:02 54.1333 -71.3667 14° North 430 495 33,000  Level Montreal Center
Mon 15:14:02 54.2500 -71.3167 North 430 495 33,000 300 Level Montreal Center
Mon 15:15:02 54.3833 -71.2833 21° North 430 495 33,600 1,000 Climbing Montreal Center
Mon 15:16:02 54.4833 -71.2167 16° North 420 483 35,000 700 Climbing Montreal Center
Mon 15:17:02 54.5833 -71.1667 14° North 410 472 35,000  Level Montreal Center
Mon 15:18:02 54.7000 -71.1167 11° North 410 472 35,000  Level Montreal Center
Mon 15:19:02 54.8000 -71.0833 14° North 410 472 35,000  Level Montreal Center
Mon 15:20:02 54.9167 -71.0333 11° North 400 460 35,000  Level Montreal Center
Mon 15:21:02 55.0167 -71.0000 14° North 400 460 35,000  Level Montreal Center
Mon 15:22:02 55.1333 -70.9500 18° North 410 472 35,000  Level Montreal Center
Mon 15:23:02 55.2500 -70.8833 14° North 410 472 35,000  Level Montreal Center
Mon 15:24:02 55.3667 -70.8333 11° North 410 472 35,000  Level Montreal Center
Mon 15:25:02 55.4667 -70.8000 14° North 410 472 35,000  Level Montreal Center
Mon 15:26:02 55.5833 -70.7500 22° Northeast 400 460 35,000  Level Montreal Center
Mon 15:27:02 55.7000 -70.6667 11° North 410 472 35,000  Level Montreal Center
Mon 15:28:02 55.8000 -70.6333 14° North 410 472 35,000  Level Montreal Center
Mon 15:29:02 55.9167 -70.5833 13° North 410 472 35,000  Level Montreal Center
Mon 15:30:02 56.0333 -70.5333 11° North 410 472 35,000  Level Montreal Center
Mon 15:31:02 56.1333 -70.5000 22° Northeast 410 472 35,000  Level Montreal Center
Mon 15:32:02 56.2500 -70.4167 15° North 410 472 35,000  Level Montreal Center
Mon 15:33:02 56.3500 -70.3667 13° North 410 472 35,000  Level Montreal Center
Mon 15:34:02 56.4667 -70.3167 North 410 472 35,000  Level Montreal Center
Mon 15:35:02 56.5833 -70.2833 13° North 400 460 35,000  Level Montreal Center
Mon 15:36:02 56.7000 -70.2333 15° North 400 460 35,000  Level Montreal Center
Mon 15:37:02 56.8000 -70.1833 24° Northeast 400 460 35,000  Level Montreal Center
Mon 15:38:02 56.9000 -70.1000 15° North 400 460 35,000  Level Montreal Center
Mon 15:39:02 57.0000 -70.0500 13° North 400 460 35,000  Level Montreal Center
Mon 15:40:02 57.1167 -70.0000 13° North 400 460 35,000  Level Montreal Center
Mon 15:41:02 57.2333 -69.9500 10° North 400 460 35,000  Level Montreal Center
Mon 15:42:02 57.3333 -69.9167 21° North 410 472 35,000  Level Montreal Center
Mon 15:43:02 57.4500 -69.8333 15° North 400 460 35,000  Level Montreal Center
Mon 15:44:02 57.5500 -69.7833 13° North 400 460 35,000  Level Montreal Center
Mon 15:45:02 57.6667 -69.7333 15° North 400 460 35,000  Level Montreal Center
Mon 15:46:02 57.7667 -69.6833 13° North 400 460 35,000  Level Montreal Center
Mon 15:47:02 57.8833 -69.6333 13° North 400 460 35,000  Level Montreal Center
Mon 15:48:02 58.0000 -69.5833 24° Northeast 400 460 35,000  Level Montreal Center
Mon 15:49:02 58.1000 -69.5000 15° North 400 460 35,000  Level Montreal Center
Mon 15:50:02 58.2000 -69.4500 17° North 400 460 35,000  Level Montreal Center
Mon 15:51:02 58.3167 -69.3833 13° North 400 460 35,000  Level Montreal Center
Mon 15:52:02 58.4333 -69.3333 24° Northeast 410 472 35,000  Level Montreal Center
Mon 15:53:02 58.5333 -69.2500 13° North 410 472 35,000  Level Montreal Center
Mon 15:54:02 58.6500 -69.2000 15° North 410 472 35,000  Level Montreal Center
Mon 15:55:02 58.7500 -69.1500 12° North 410 472 35,000  Level Montreal Center
Mon 15:56:02 58.8667 -69.1000 16° North 410 472 35,000  Level Montreal Center
Mon 15:57:02 58.9833 -69.0333 12° North 410 472 35,000  Level Montreal Center
Mon 15:58:02 59.1000 -68.9833 27° Northeast 410 472 35,000  Level Montreal Center
Mon 15:59:02 59.1833 -68.9000 12° North 410 472 35,000  Level Montreal Center
Mon 16:00:02 59.3000 -68.8500 16° North 410 472 35,000  Level Montreal Center
Mon 16:01:02 59.4167 -68.7833 14° North 410 472 35,000  Level Montreal Center
Mon 16:02:02 59.5167 -68.7333 16° North 410 472 35,000  Level Montreal Center
Mon 16:03:02 59.6333 -68.6667 12° North 420 483 35,000  Level Montreal Center
Mon 16:04:02 59.7500 -68.6167 20° North 420 483 35,000  Level Montreal Center
Mon 16:05:02 59.8667 -68.5333 14° North 430 495 35,000  Level Montreal Center
Mon 16:06:02 60.0000 -68.4667 18° North 430 495 35,000  Level Montreal Center
Mon 16:07:02 60.1000 -68.4000 20° North 420 483 35,000  Level Montreal Center
Mon 16:08:02 60.2167 -68.3167 16° North 430 495 35,000  Level Montreal Center
Mon 16:09:02 60.3333 -68.2500 16° North 430 495 35,000  Level Montreal Center
Mon 16:10:02 60.4500 -68.1833 12° North 430 495 35,000  Level Montreal Center
Mon 16:11:02 60.5667 -68.1333 16° North 440 506 35,000  Level Montreal Center
Mon 16:12:02 60.6833 -68.0667 26° Northeast 440 506 35,000  Level Montreal Center
Mon 16:13:02 60.7833 -67.9667 16° North 440 506 35,000  Level Montreal Center
Mon 16:14:02 60.9000 -67.9000 20° North 440 506 35,000  Level Montreal Center
Mon 16:15:02 61.0333 -67.8000 12° North 450 518 35,000  Level Montreal Center
Mon 16:16:02 61.1500 -67.7500 17° North 440 506 35,000  Level Montreal Center
Mon 16:17:02 61.2833 -67.6667 12° North 450 518 35,000  Level Montreal Center
Mon 16:18:02 61.4000 -67.6167 26° Northeast 450 518 35,000  Level Montreal Center
Mon 16:19:02 61.5000 -67.5167 15° North 450 518 35,000  Level Montreal Center
Mon 16:20:02 61.6167 -67.4500 16° North 450 518 35,000  Level Montreal Center
Mon 16:21:02 61.7500 -67.3667 15° North 450 518 35,000  Level Montreal Center
Mon 16:22:02 61.8667 -67.3000 19° North 450 518 35,000  Level Montreal Center
Mon 16:23:02 62.0000 -67.2000 17° North 460 529 35,000  Level Montreal Center
Mon 16:24:02 62.1000 -67.1333 22° Northeast 450 518 35,000  Level Montreal Center
Mon 16:25:02 62.2333 -67.0167 15° North 450 518 35,000  Level Montreal Center
Mon 16:26:02 62.3500 -66.9500 15° North 460 529 35,000  Level Montreal Center
Mon 16:27:02 62.4667 -66.8833 13° North 450 518 35,000  Level Montreal Center
Mon 16:28:02 62.6000 -66.8167 28° Northeast 450 518 35,000  Level Montreal Center
Mon 16:29:02 62.7000 -66.7000 15° North 460 529 35,000  Level Montreal Center
Mon 16:30:02 62.8167 -66.6333 16° North 450 518 35,000  Level Montreal Center
Mon 16:31:02 62.9500 -66.5500 24° Northeast 450 518 35,000  Level Montreal Center
Mon 16:32:02 63.0667 -66.4333 15° North 450 518 35,000  Level Montreal Center
Mon 16:34:02 63.3167 -66.2833 21° North 460 529 35,000  Level Montreal Center
Mon 16:35:02 63.4333 -66.1833 20° North 460 529 35,000  Level Montreal Center
Mon 16:36:02 63.5333 -66.1000 15° North 460 529 35,000  Level Montreal Center
Mon 16:37:02 63.6667 -66.0167 21° North 470 541 35,000  Level Montreal Center
Mon 16:38:02 63.8000 -65.9000 15° North 460 529 35,000  Level Montreal Center
Mon 16:39:02 63.9333 -65.8167 20° North 460 529 35,000  Level Montreal Center
Mon 16:40:02 64.0333 -65.7333 21° North 460 529 35,000  Level Montreal Center
Mon 16:41:02 64.1667 -65.6167 17° North 460 529 35,000  Level Montreal Center
Mon 16:42:02 64.2833 -65.5333 17° North 460 529 35,000  Level Montreal Center
Mon 16:43:02 64.4000 -65.4500 23° Northeast 470 541 35,000  Level Montreal Center
Mon 16:44:02 64.5167 -65.3333 19° North 470 541 35,000  Level Montreal Center
Mon 16:47:02 64.9000 -65.0167 17° North 460 529 35,000  Level Montreal Center
Mon 16:48:02 65.0167 -64.9333 17° North 470 541 35,000  Level Montreal Center
Mon 16:49:02 65.1333 -64.8500 17° North 470 541 35,000  Level Montreal Center
Mon 16:50:02 65.2667 -64.7500 21° North 470 541 35,000  Level Montreal Center
Mon 16:52:02 65.5000 -64.5333 17° North 470 541 35,000  Level Montreal Center
Mon 16:53:02 65.6333 -64.4333 16° North 470 541 35,000  Level Montreal Center
Mon 16:54:02 65.7500 -64.3500 25° Northeast 470 541 35,000  Level Montreal Center
Mon 16:55:02 65.8667 -64.2167 17° North 470 541 35,000  Level Montreal Center
Mon 16:56:02 66.0000 -64.1167 19° North 470 541 35,000  Level Montreal Center
Mon 16:57:02 66.1000 -64.0333 17° North 470 541 35,000  Level Montreal Center
Mon 16:58:02 66.2333 -63.9333 19° North 470 541 35,000  Level Montreal Center
Mon 16:59:02 66.3667 -63.8167 49° Northeast 470 541 35,000  Level Montreal Center
Mon 17:00:26 66.4833 -63.4833 24° Northeast 470 541 35,000  Level Edmonton Center
Mon 17:01:26 66.6000 -63.3500 22° Northeast 480 552 35,000  Level Edmonton Center
Mon 17:02:26 66.7167 -63.2333 16° North 470 541 35,000  Level Edmonton Center
Mon 17:03:26 66.8500 -63.1333 27° Northeast 470 541 35,000  Level Edmonton Center
Mon 17:04:26 66.9667 -62.9833 21° North 470 541 35,000  Level Edmonton Center
Mon 17:05:26 67.0833 -62.8667 16° North 470 541 35,000  Level Edmonton Center
Mon 17:06:26 67.2167 -62.7667 21° North 470 541 35,000  Level Edmonton Center
Mon 17:07:26 67.3333 -62.6500 19° North 470 541 35,000  Level Edmonton Center
Mon 17:08:26 67.4667 -62.5333 24° Northeast 480 552 35,000  Level Edmonton Center
Mon 17:09:26 67.5667 -62.4167 23° Northeast 480 552 35,000  Level Edmonton Center
Mon 17:10:26 67.7000 -62.2667 18° North 480 552 35,000  Level Edmonton Center
Mon 17:11:26 67.8333 -62.1500 27° Northeast 480 552 35,000  Level Edmonton Center
Mon 17:12:26 67.9333 -62.0167 18° North 480 552 35,000  Level Edmonton Center
Mon 17:13:26 68.0667 -61.9000 23° Northeast 480 552 35,000  Level Edmonton Center
Mon 17:14:26 68.1833 -61.7667 25° Northeast 480 552 35,000  Level Edmonton Center
Mon 17:15:26 68.3000 -61.6167 17° North 480 552 35,000  Level Edmonton Center
Mon 17:16:26 68.4167 -61.5167 22° Northeast 480 552 35,000  Level Edmonton Center
Mon 17:17:26 68.5500 -61.3667 20° North 480 552 35,000  Level Edmonton Center
Mon 17:18:26 68.6833 -61.2333 26° Northeast 480 552 35,000  Level Edmonton Center
Mon 17:19:26 68.7833 -61.1000 20° North 480 552 35,000  Level Edmonton Center
Mon 17:20:26 68.9167 -60.9667 24° Northeast 480 552 35,000  Level Edmonton Center
Mon 17:21:26 69.0500 -60.8000 17° North 480 552 35,000  Level Edmonton Center
Mon 17:22:26 69.1667 -60.7000 27° Northeast 480 552 35,000  Level Edmonton Center
Mon 17:23:26 69.2833 -60.5333 29° Northeast 480 552 35,000  Level Edmonton Center
Mon 17:24:26 69.4000 -60.3500 17° North 480 552 35,000  Level Edmonton Center
Mon 17:25:26 69.5167 -60.2500 24° Northeast 490 564 35,000  Level Edmonton Center
Mon 17:28:26 69.8833 -59.7833 21° North 490 564 35,000  Level Edmonton Center
Mon 17:29:26 70.0167 -59.6333 North 490 564 35,000  Level Edmonton Center
Mon 17:30:26 70.1500 -59.5833 12° North 490 564 35,000  Level Edmonton Center
Mon 17:31:26 70.2833 -59.5000 12° North 490 564 35,000  Level Edmonton Center
Mon 17:32:26 70.4167 -59.4167 360° North 490 564 35,000  Level Edmonton Center
Mon 17:33:26 70.5333 -59.4167 12° North 480 552 35,000  Level Edmonton Center
Mon 17:34:26 70.6667 -59.3333 North 480 552 35,000  Level Edmonton Center
Mon 17:35:26 70.8167 -59.2833 18° North 480 552 35,000  Level Edmonton Center
Mon 17:36:26 70.9167 -59.1833 North 480 552 35,000  Level Edmonton Center
Mon 17:44:18 71.9352 -58.7329 North  Level FlightAware Approximate
Mon 17:45:18 72.0646 -58.6721 North  Level FlightAware Approximate
Mon 17:46:18 72.1939 -58.6104 North  Level FlightAware Approximate
Mon 17:47:18 72.3233 -58.5479 North  Level FlightAware Approximate
Mon 17:48:18 72.4526 -58.4845 North  Level FlightAware Approximate
Mon 17:49:18 72.5819 -58.4201 North  Level FlightAware Approximate
Mon 17:50:18 72.7112 -58.3549 North  Level FlightAware Approximate
Mon 17:51:18 72.8405 -58.2886 North  Level FlightAware Approximate
Mon 17:52:18 72.9697 -58.2215 North  Level FlightAware Approximate
Mon 17:53:18 73.0989 -58.1533 North  Level FlightAware Approximate
Mon 17:54:18 73.2281 -58.0840 North  Level FlightAware Approximate
Mon 17:55:18 73.3573 -58.0138 North  Level FlightAware Approximate
Mon 17:56:18 73.4865 -57.9425 North  Level FlightAware Approximate
Mon 17:57:18 73.6156 -57.8701 North  Level FlightAware Approximate
Mon 17:58:18 73.7447 -57.7965 North  Level FlightAware Approximate
Mon 17:59:18 73.8738 -57.7219 North  Level FlightAware Approximate
Mon 18:00:18 74.0028 -57.6460 North  Level FlightAware Approximate
Mon 18:01:18 74.1319 -57.5690 North  Level FlightAware Approximate
Mon 18:02:18 74.2609 -57.4907 North  Level FlightAware Approximate
Mon 18:03:18 74.3898 -57.4111 North  Level FlightAware Approximate
Mon 18:04:18 74.5188 -57.3303 10° North  Level FlightAware Approximate
Mon 18:05:18 74.6477 -57.2482 10° North  Level FlightAware Approximate
Mon 18:06:18 74.7766 -57.1646 10° North  Level FlightAware Approximate
Mon 18:07:18 74.9054 -57.0798 12° North  Level FlightAware Approximate
Mon 18:08:18 75.0334 -56.9776 North  Level FlightAware Approximate
Mon 18:09:18 75.1624 -56.8943 North  Level FlightAware Approximate
Mon 18:10:18 75.2914 -56.8096 10° North  Level FlightAware Approximate
Mon 18:11:18 75.4203 -56.7235 10° North  Level FlightAware Approximate
Mon 18:12:18 75.5492 -56.6358 10° North  Level FlightAware Approximate
Mon 18:13:18 75.6780 -56.5466 10° North  Level FlightAware Approximate
Mon 18:14:18 75.8068 -56.4558 10° North  Level FlightAware Approximate
Mon 18:15:18 75.9356 -56.3633 10° North  Level FlightAware Approximate
Mon 18:16:18 76.0644 -56.2692 10° North  Level FlightAware Approximate
Mon 18:17:18 76.1931 -56.1734 10° North  Level FlightAware Approximate
Mon 18:18:18 76.3217 -56.0758 10° North  Level FlightAware Approximate
Mon 18:19:18 76.4504 -55.9764 10° North  Level FlightAware Approximate
Mon 18:20:18 76.5790 -55.8751 10° North  Level FlightAware Approximate
Mon 18:21:18 76.7075 -55.7719 11° North  Level FlightAware Approximate
Mon 18:22:18 76.8361 -55.6668 11° North  Level FlightAware Approximate
Mon 18:23:18 76.9645 -55.5596 11° North  Level FlightAware Approximate
Mon 18:24:18 77.0930 -55.4502 11° North  Level FlightAware Approximate
Mon 18:25:18 77.2213 -55.3388 11° North  Level FlightAware Approximate
Mon 18:26:18 77.3497 -55.2251 11° North  Level FlightAware Approximate
Mon 18:27:18 77.4780 -55.1091 11° North  Level FlightAware Approximate
Mon 18:28:18 77.6062 -54.9907 11° North  Level FlightAware Approximate
Mon 18:29:18 77.7344 -54.8700 11° North  Level FlightAware Approximate
Mon 18:30:18 77.8625 -54.7467 12° North  Level FlightAware Approximate
Mon 18:31:18 77.9905 -54.6208 12° North  Level FlightAware Approximate
Mon 18:32:18 78.1186 -54.4922 12° North  Level FlightAware Approximate
Mon 18:33:18 78.2465 -54.3609 12° North  Level FlightAware Approximate
Mon 18:34:18 78.3744 -54.2267 24° Northeast  Level FlightAware Approximate
Mon 18:35:18 78.4874 -53.9688 12° North  Level FlightAware Approximate
Mon 18:36:18 78.6155 -53.8355 12° North  Level FlightAware Approximate
Mon 18:37:18 78.7434 -53.6992 12° North  Level FlightAware Approximate
Mon 18:38:18 78.8714 -53.5598 12° North  Level FlightAware Approximate
Mon 18:39:18 78.9992 -53.4173 12° North  Level FlightAware Approximate
Mon 18:40:18 79.1270 -53.2714 12° North  Level FlightAware Approximate
Mon 18:41:18 79.2547 -53.1221 12° North  Level FlightAware Approximate
Mon 18:42:18 79.3823 -52.9692 13° North  Level FlightAware Approximate
Mon 18:43:18 79.5099 -52.8127 13° North  Level FlightAware Approximate
Mon 18:44:18 79.6374 -52.6523 13° North  Level FlightAware Approximate
Mon 18:45:18 79.7648 -52.4880 13° North  Level FlightAware Approximate
Mon 18:46:18 79.8921 -52.3197 26° Northeast  Level FlightAware Approximate
Mon 18:47:18 80.0090 -51.9877 13° North  Level FlightAware Approximate
Mon 18:48:18 80.1363 -51.8129 13° North  Level FlightAware Approximate
Mon 18:49:18 80.2634 -51.6336 14° North  Level FlightAware Approximate
Mon 18:50:18 80.3904 -51.4496 14° North  Level FlightAware Approximate
Mon 18:51:18 80.5174 -51.2607 14° North  Level FlightAware Approximate
Mon 18:52:18 80.6442 -51.0667 14° North  Level FlightAware Approximate
Mon 18:53:18 80.7710 -50.8674 14° North  Level FlightAware Approximate
Mon 18:54:18 80.8976 -50.6627 15° North  Level FlightAware Approximate
Mon 18:55:18 81.0241 -50.4522 15° North  Level FlightAware Approximate
Mon 18:56:18 81.1505 -50.2358 15° North  Level FlightAware Approximate
Mon 18:57:18 81.2767 -50.0131 15° North  Level FlightAware Approximate
Mon 18:58:18 81.4028 -49.7840 15° North  Level FlightAware Approximate
Mon 18:59:18 81.5288 -49.5481 16° North  Level FlightAware Approximate
Mon 19:00:18 81.6546 -49.3051 16° North  Level FlightAware Approximate
Mon 19:01:18 81.7803 -49.0548 16° North  Level FlightAware Approximate
Mon 19:02:18 81.9058 -48.7967 16° North  Level FlightAware Approximate
Mon 19:03:18 82.0312 -48.5306 17° North  Level FlightAware Approximate
Mon 19:04:18 82.1563 -48.2560 19° North  Level FlightAware Approximate
Mon 19:05:18 82.2800 -47.9473 17° North  Level FlightAware Approximate
Mon 19:06:18 82.4050 -47.6584 17° North  Level FlightAware Approximate
Mon 19:07:18 82.5297 -47.3599 18° North  Level FlightAware Approximate
Mon 19:08:18 82.6543 -47.0514 18° North  Level FlightAware Approximate
Mon 19:09:18 82.7786 -46.7323 18° North  Level FlightAware Approximate
Mon 19:10:18 82.9027 -46.4021 19° North  Level FlightAware Approximate
Mon 19:11:18 83.0266 -46.0602 19° North  Level FlightAware Approximate
Mon 19:12:18 83.1502 -45.7060 19° North  Level FlightAware Approximate
Mon 19:13:18 83.2735 -45.3388 20° North  Level FlightAware Approximate
Mon 19:14:18 83.3966 -44.9581 20° North  Level FlightAware Approximate
Mon 19:15:18 83.5193 -44.5629 20° North  Level FlightAware Approximate
Mon 19:16:18 83.6417 -44.1526 21° North  Level FlightAware Approximate
Mon 19:17:18 83.7638 -43.7263 21° North  Level FlightAware Approximate
Mon 19:18:18 83.8856 -43.2830 22° Northeast  Level FlightAware Approximate
Mon 19:19:18 84.0070 -42.8218 22° Northeast  Level FlightAware Approximate
Mon 19:20:18 84.1279 -42.3416 23° Northeast  Level FlightAware Approximate
Mon 19:21:18 84.2485 -41.8414 23° Northeast  Level FlightAware Approximate
Mon 19:22:18 84.3685 -41.3199 24° Northeast  Level FlightAware Approximate
Mon 19:23:18 84.4881 -40.7757 24° Northeast  Level FlightAware Approximate
Mon 19:24:18 84.6072 -40.2076 25° Northeast  Level FlightAware Approximate
Mon 19:25:18 84.7258 -39.6139 25° Northeast  Level FlightAware Approximate
Mon 19:26:18 84.8437 -38.9931 26° Northeast  Level FlightAware Approximate
Mon 19:27:18 84.9610 -38.3434 31° Northeast  Level FlightAware Approximate
Mon 19:28:18 85.0727 -37.5728 24° Northeast  Level FlightAware Approximate
Mon 19:29:18 85.1916 -36.9328 28° Northeast  Level Estimated
Mon 19:30:18 87.3354 -7.1554 57° Northeast  Level FlightAware Approximate
Mon 19:31:18 87.4035 -4.7245 60° Northeast  Level FlightAware Approximate
Mon 19:32:18 87.4668 -2.1674 62° Northeast  Level FlightAware Approximate
Mon 19:33:18 87.5248 0.5150 65° Northeast  Level FlightAware Approximate
Mon 19:34:18 87.5772 3.3196 68° East  Level FlightAware Approximate
Mon 19:35:18 87.6235 6.2405 71° East  Level FlightAware Approximate
Mon 19:36:18 87.6633 9.2692 74° East  Level FlightAware Approximate
Mon 19:37:18 87.6965 12.3939 77° East  Level FlightAware Approximate
Mon 19:38:18 87.7226 15.6000 80° East  Level FlightAware Approximate
Mon 19:39:18 87.7414 18.8699 83° East  Level FlightAware Approximate
Mon 19:40:18 87.7528 22.1838 88° East  Level FlightAware Approximate
Mon 19:41:18 87.7526 25.5117 90° East  Level FlightAware Approximate
Mon 19:42:18 87.7487 28.8421 93° East  Level FlightAware Approximate
Mon 19:43:18 87.7374 32.1501 97° East  Level FlightAware Approximate
Mon 19:44:18 87.7186 35.4142 100° East  Level FlightAware Approximate
Mon 19:45:18 87.6925 38.6148 103° East  Level FlightAware Approximate
Mon 19:46:18 87.6594 41.7345 106° East  Level FlightAware Approximate
Mon 19:47:18 87.6195 44.7585 109° East  Level FlightAware Approximate
Mon 19:48:18 87.5733 47.6752 112° Southeast  Level FlightAware Approximate
Mon 19:49:18 87.5210 50.4760 115° Southeast  Level FlightAware Approximate
Mon 19:50:18 87.4631 53.1552 118° Southeast  Level FlightAware Approximate
Mon 19:51:18 87.3999 55.7095 120° Southeast  Level FlightAware Approximate
Mon 19:52:18 87.3318 58.1381 123° Southeast  Level FlightAware Approximate
Mon 19:53:18 87.2591 60.4420 125° Southeast  Level FlightAware Approximate
Mon 19:54:18 87.1823 62.6237 127° Southeast  Level FlightAware Approximate
Mon 19:55:18 87.1015 64.6868 129° Southeast  Level FlightAware Approximate
Mon 19:56:18 87.0173 66.6358 131° Southeast  Level FlightAware Approximate
Mon 19:57:18 86.9297 68.4758 133° Southeast  Level FlightAware Approximate
Mon 19:58:18 86.8392 70.2122 135° Southeast  Level FlightAware Approximate
Mon 19:59:18 86.7460 71.8507 136° Southeast  Level FlightAware Approximate
Mon 20:00:18 86.6503 73.3968 138° Southeast  Level FlightAware Approximate
Mon 20:01:18 86.5522 74.8560 139° Southeast  Level FlightAware Approximate
Mon 20:02:18 86.4521 76.2339 141° Southeast  Level FlightAware Approximate
Mon 20:03:18 86.3500 77.5355 142° Southeast  Level FlightAware Approximate
Mon 20:04:18 86.2461 78.7657 143° Southeast  Level FlightAware Approximate
Mon 20:05:18 86.1406 79.9293 144° Southeast  Level FlightAware Approximate
Mon 20:06:18 86.0337 81.0307 145° Southeast  Level FlightAware Approximate
Mon 20:07:18 85.9253 82.0739 147° Southeast  Level FlightAware Approximate
Mon 20:08:18 85.8188 83.0349 145° Southeast  Level FlightAware Approximate
Mon 20:09:18 85.7141 84.0047 148° Southeast  Level FlightAware Approximate
Mon 20:10:18 85.6054 84.8715 149° Southeast  Level FlightAware Approximate
Mon 20:11:18 85.4957 85.6964 150° Southeast  Level FlightAware Approximate
Mon 20:12:18 85.3852 86.4819 151° Southeast  Level FlightAware Approximate
Mon 20:13:18 85.2738 87.2307 152° Southeast  Level FlightAware Approximate
Mon 20:14:18 85.1617 87.9449 152° Southeast  Level FlightAware Approximate
Mon 20:15:18 85.0488 88.6268 153° Southeast  Level FlightAware Approximate
Mon 20:16:18 84.9353 89.2783 154° Southeast  Level FlightAware Approximate
Mon 20:17:18 84.8212 89.9012 154° Southeast  Level FlightAware Approximate
Mon 20:18:18 84.7065 90.4972 155° Southeast  Level FlightAware Approximate
Mon 20:19:18 84.5912 91.0680 155° Southeast  Level FlightAware Approximate
Mon 20:20:18 84.4754 91.6149 156° South  Level FlightAware Approximate
Mon 20:21:18 84.3592 92.1395 157° South  Level FlightAware Approximate
Mon 20:22:18 84.2425 92.6429 157° South  Level FlightAware Approximate
Mon 20:23:18 84.1254 93.1263 158° South  Level FlightAware Approximate
Mon 20:24:18 84.0078 93.5908 158° South  Level FlightAware Approximate
Mon 20:25:18 83.8899 94.0375 158° South  Level FlightAware Approximate
Mon 20:26:18 83.7717 94.4673 159° South  Level FlightAware Approximate
Mon 20:27:18 83.6531 94.8812 159° South  Level FlightAware Approximate
Mon 20:28:18 83.5342 95.2799 160° South  Level FlightAware Approximate
Mon 20:29:18 83.4149 95.6643 160° South  Level FlightAware Approximate
Mon 20:30:18 83.2955 96.0350 161° South  Level FlightAware Approximate
Mon 20:31:18 83.1755 96.3878 161° South  Level FlightAware Approximate
Mon 20:32:18 83.0555 96.7334 161° South  Level FlightAware Approximate
Mon 20:33:18 82.9352 97.0674 161° South  Level FlightAware Approximate
Mon 20:34:18 82.8148 97.3902 162° South  Level FlightAware Approximate
Mon 20:35:18 82.6941 97.7024 162° South  Level FlightAware Approximate
Mon 20:36:18 82.5732 98.0045 162° South  Level FlightAware Approximate
Mon 20:37:18 82.4521 98.2970 163° South  Level FlightAware Approximate
Mon 20:38:18 82.3308 98.5803 163° South  Level FlightAware Approximate
Mon 20:39:18 82.2093 98.8548 163° South  Level FlightAware Approximate
Mon 20:40:18 82.0877 99.1209 163° South  Level FlightAware Approximate
Mon 20:41:18 81.9659 99.3791 164° South  Level FlightAware Approximate
Mon 20:42:18 81.8439 99.6295 164° South  Level FlightAware Approximate
Mon 20:43:18 81.7218 99.8726 164° South  Level FlightAware Approximate
Mon 20:44:18 81.5995 100.1087 164° South  Level FlightAware Approximate
Mon 20:45:18 81.4771 100.3381 165° South  Level FlightAware Approximate
Mon 20:46:18 81.3546 100.5610 165° South  Level FlightAware Approximate
Mon 20:47:18 81.2320 100.7777 165° South  Level FlightAware Approximate
Mon 20:48:18 81.1092 100.9885 165° South  Level FlightAware Approximate
Mon 20:49:18 80.9863 101.1936 166° South  Level FlightAware Approximate
Mon 20:50:18 80.8633 101.3932 166° South  Level FlightAware Approximate
Mon 20:51:18 80.7402 101.5876 166° South  Level FlightAware Approximate
Mon 20:52:18 80.6170 101.7769 166° South  Level FlightAware Approximate
Mon 20:53:18 80.4937 101.9613 166° South  Level FlightAware Approximate
Mon 20:54:18 80.3703 102.1411 166° South  Level FlightAware Approximate
Mon 20:55:18 80.2469 102.3163 167° South  Level FlightAware Approximate
Mon 20:56:18 80.1233 102.4872 167° South  Level FlightAware Approximate
Mon 20:57:18 79.9996 102.6540 167° South  Level FlightAware Approximate
Mon 20:58:18 79.8759 102.8167 167° South  Level FlightAware Approximate
Mon 20:59:18 79.7521 102.9754 167° South  Level FlightAware Approximate
Mon 21:00:18 79.6282 103.1305 167° South  Level FlightAware Approximate
Mon 21:01:18 79.5042 103.2819 168° South  Level FlightAware Approximate
Mon 21:02:18 79.3802 103.4298 168° South  Level FlightAware Approximate
Mon 21:03:18 79.2561 103.5744 168° South  Level FlightAware Approximate
Mon 21:04:18 79.1320 103.7157 168° South  Level FlightAware Approximate
Mon 21:05:18 79.0077 103.8538 168° South  Level FlightAware Approximate
Mon 21:06:18 78.8834 103.9889 168° South  Level FlightAware Approximate
Mon 21:07:18 78.7591 104.1210 168° South  Level FlightAware Approximate
Mon 21:08:18 78.6347 104.2503 169° South  Level FlightAware Approximate
Mon 21:09:18 78.5102 104.3768 169° South  Level FlightAware Approximate
Mon 21:10:18 78.3857 104.5007 169° South  Level FlightAware Approximate
Mon 21:11:18 78.2611 104.6219 169° South  Level FlightAware Approximate
Mon 21:12:18 78.1365 104.7406 169° South  Level FlightAware Approximate
Mon 21:13:18 78.0119 104.8569 169° South  Level FlightAware Approximate
Mon 21:14:18 77.8872 104.9709 169° South  Level FlightAware Approximate
Mon 21:15:18 77.7624 105.0825 169° South  Level FlightAware Approximate
Mon 21:16:18 77.6376 105.1920 169° South  Level FlightAware Approximate
Mon 21:17:18 77.5128 105.2992 170° South  Level FlightAware Approximate
Mon 21:18:18 77.3879 105.4044 170° South  Level FlightAware Approximate
Mon 21:19:18 77.2629 105.5076 170° South  Level FlightAware Approximate
Mon 21:20:18 77.1380 105.6088 170° South  Level FlightAware Approximate
Mon 21:21:18 77.0130 105.7080 170° South  Level FlightAware Approximate
Mon 21:22:18 76.8879 105.8055 170° South  Level FlightAware Approximate
Mon 21:23:18 76.7629 105.9010 170° South  Level FlightAware Approximate
Mon 21:24:18 76.6377 105.9949 170° South  Level FlightAware Approximate
Mon 21:25:18 76.5126 106.0870 170° South  Level FlightAware Approximate
Mon 21:26:18 76.3874 106.1775 170° South  Level FlightAware Approximate
Mon 21:27:18 76.2622 106.2663 171° South  Level FlightAware Approximate
Mon 21:28:18 76.1370 106.3536 171° South  Level FlightAware Approximate
Mon 21:29:18 76.0117 106.4394 171° South  Level FlightAware Approximate
Mon 21:30:18 75.8864 106.5236 171° South  Level FlightAware Approximate
Mon 21:31:18 75.7611 106.6064 171° South  Level FlightAware Approximate
Mon 21:32:18 75.6357 106.6878 171° South  Level FlightAware Approximate
Mon 21:33:18 75.5104 106.7678 171° South  Level FlightAware Approximate
Mon 21:34:18 75.3849 106.8461 171° South  Level FlightAware Approximate
Mon 21:35:18 75.2595 106.9232 171° South  Level FlightAware Approximate
Mon 21:36:18 75.1340 106.9990 171° South  Level FlightAware Approximate
Mon 21:37:18 75.0085 107.0736 171° South  Level FlightAware Approximate
Mon 21:38:18 74.8830 107.1469 171° South  Level FlightAware Approximate
Mon 21:39:18 74.7575 107.2191 171° South  Level FlightAware Approximate
Mon 21:40:18 74.6319 107.2901 172° South  Level FlightAware Approximate
Mon 21:41:18 74.5063 107.3600 172° South  Level FlightAware Approximate
Mon 21:42:18 74.3807 107.4288 172° South  Level FlightAware Approximate
Mon 21:43:18 74.2551 107.4965 172° South  Level FlightAware Approximate
Mon 21:44:18 74.1294 107.5632 172° South  Level FlightAware Approximate
Mon 21:45:18 74.0038 107.6289 172° South  Level FlightAware Approximate
Mon 21:46:18 73.8781 107.6935 172° South  Level FlightAware Approximate
Mon 21:47:18 73.7523 107.7572 172° South  Level FlightAware Approximate
Mon 21:48:18 73.6266 107.8200 172° South  Level FlightAware Approximate
Mon 21:49:18 73.5009 107.8818 172° South  Level FlightAware Approximate
Mon 21:50:18 73.3751 107.9427 172° South  Level FlightAware Approximate
Mon 21:51:18 73.2493 108.0027 172° South  Level FlightAware Approximate
Mon 21:52:18 73.1235 108.0618 172° South  Level FlightAware Approximate
Mon 21:53:18 72.9977 108.1201 172° South  Level FlightAware Approximate
Mon 21:54:18 72.8719 108.1776 172° South  Level FlightAware Approximate
Mon 21:55:18 72.7460 108.2342 172° South  Level FlightAware Approximate
Mon 21:56:18 72.6201 108.2901 173° South  Level FlightAware Approximate
Mon 21:57:18 72.4943 108.3451 173° South  Level FlightAware Approximate
Mon 21:58:18 72.3684 108.3994 173° South  Level FlightAware Approximate
Mon 21:59:18 72.2425 108.4530 173° South  Level FlightAware Approximate
Mon 22:00:18 72.1165 108.5058 173° South  Level FlightAware Approximate
Mon 22:01:18 71.9906 108.5580 173° South  Level FlightAware Approximate
Mon 22:02:18 71.8646 108.6094 173° South  Level FlightAware Approximate
Mon 22:03:18 71.7387 108.6601 173° South  Level FlightAware Approximate
Mon 22:04:18 71.6127 108.7102 173° South  Level FlightAware Approximate
Mon 22:05:18 71.4867 108.7596 173° South  Level FlightAware Approximate
Mon 22:06:18 71.3607 108.8083 173° South  Level FlightAware Approximate
Mon 22:07:18 71.2347 108.8565 173° South  Level FlightAware Approximate
Mon 22:08:18 71.1087 108.9040 173° South  Level FlightAware Approximate
Mon 22:09:18 70.9826 108.9509 173° South  Level FlightAware Approximate
Mon 22:10:18 70.8566 108.9972 173° South  Level FlightAware Approximate
Mon 22:11:18 70.7305 109.0429 173° South  Level FlightAware Approximate
Mon 22:12:18 70.6044 109.0881 173° South  Level FlightAware Approximate
Mon 22:13:18 70.4783 109.1327 173° South  Level FlightAware Approximate
Mon 22:14:18 70.3522 109.1767 173° South  Level FlightAware Approximate
Mon 22:15:18 70.2261 109.2202 173° South  Level FlightAware Approximate
Mon 22:16:18 70.1000 109.2632 173° South  Level FlightAware Approximate
Mon 22:17:18 69.9739 109.3056 173° South  Level FlightAware Approximate
Mon 22:18:18 69.8477 109.3476 174° South  Level FlightAware Approximate
Mon 22:19:18 69.7216 109.3890 174° South  Level FlightAware Approximate
Mon 22:20:18 69.5955 109.4299 174° South  Level FlightAware Approximate
Mon 22:21:18 69.4693 109.4704 174° South  Level FlightAware Approximate
Mon 22:22:18 69.3431 109.5104 174° South  Level FlightAware Approximate
Mon 22:23:18 69.2169 109.5499 174° South  Level FlightAware Approximate
Mon 22:24:18 69.0907 109.5890 174° South  Level FlightAware Approximate
Mon 22:25:18 68.9645 109.6276 174° South  Level FlightAware Approximate
Mon 22:26:18 68.8383 109.6658 174° South  Level FlightAware Approximate
Mon 22:27:18 68.7121 109.7036 174° South  Level FlightAware Approximate
Mon 22:28:18 68.5859 109.7409 174° South  Level FlightAware Approximate
Mon 22:29:18 68.4596 109.7778 174° South  Level FlightAware Approximate
Mon 22:30:18 68.3334 109.8143 174° South  Level FlightAware Approximate
Mon 22:31:18 68.2071 109.8504 174° South  Level FlightAware Approximate
Mon 22:32:18 68.0808 109.8861 174° South  Level FlightAware Approximate
Mon 22:33:18 67.9546 109.9215 172° South  Level FlightAware Approximate
Mon 22:34:18 67.8288 109.9679 174° South  Level FlightAware Approximate
Mon 22:35:18 67.7026 110.0021 174° South  Level FlightAware Approximate
Mon 22:36:18 67.5762 110.0360 174° South  Level FlightAware Approximate
Mon 22:37:18 67.4499 110.0695 174° South  Level FlightAware Approximate
Mon 22:38:18 67.3236 110.1026 174° South  Level FlightAware Approximate
Mon 22:39:18 67.1973 110.1354 174° South  Level FlightAware Approximate
Mon 22:40:18 67.0710 110.1678 174° South  Level FlightAware Approximate
Mon 22:41:18 66.9446 110.2000 174° South  Level FlightAware Approximate
Mon 22:42:18 66.8183 110.2317 174° South  Level FlightAware Approximate
Mon 22:43:18 66.6919 110.2632 174° South  Level FlightAware Approximate
Mon 22:44:18 66.5656 110.2943 174° South  Level FlightAware Approximate
Mon 22:45:18 66.4392 110.3252 175° South  Level FlightAware Approximate
Mon 22:46:18 66.3128 110.3547 174° South  Level FlightAware Approximate
Mon 22:47:18 66.1865 110.3849 175° South  Level FlightAware Approximate
Mon 22:48:18 66.0601 110.4149 175° South  Level FlightAware Approximate
Mon 22:49:18 65.9337 110.4445 175° South  Level FlightAware Approximate
Mon 22:50:18 65.8073 110.4739 175° South  Level FlightAware Approximate
Mon 22:51:18 65.6809 110.5030 176° South  Level FlightAware Approximate
Mon 22:52:18 65.5543 110.5234 175° South  Level FlightAware Approximate
Mon 22:53:18 65.4279 110.5525 175° South  Level FlightAware Approximate
Mon 22:54:18 65.3015 110.5813 175° South  Level FlightAware Approximate
Mon 22:55:18 65.1751 110.6098 175° South  Level FlightAware Approximate
Mon 22:56:18 65.0487 110.6381 175° South  Level FlightAware Approximate
Mon 22:57:18 64.9223 110.6661 175° South  Level FlightAware Approximate
Mon 22:58:18 64.7959 110.6938 175° South  Level FlightAware Approximate
Mon 22:59:18 64.6695 110.7213 175° South  Level FlightAware Approximate
Mon 23:00:18 64.5431 110.7486 175° South  Level FlightAware Approximate
Mon 23:01:18 64.4166 110.7755 175° South  Level FlightAware Approximate
Mon 23:02:18 64.2902 110.8023 175° South  Level FlightAware Approximate
Mon 23:03:18 64.1638 110.8288 175° South  Level FlightAware Approximate
Mon 23:04:18 64.0373 110.8550 175° South  Level FlightAware Approximate
Mon 23:05:18 63.9109 110.8810 175° South  Level FlightAware Approximate
Mon 23:06:18 63.7844 110.9068 175° South  Level FlightAware Approximate
Mon 23:12:26 63.0088 111.0600 175° South  Level FlightAware Approximate
Mon 23:13:26 62.8823 111.0842 175° South  Level FlightAware Approximate
Mon 23:14:26 62.7558 111.1082 175° South  Level FlightAware Approximate
Mon 23:15:26 62.6293 111.1320 176° South  Level FlightAware Approximate
Mon 23:16:26 62.5027 111.1516 175° South  Level FlightAware Approximate
Mon 23:17:26 62.3762 111.1748 175° South  Level FlightAware Approximate
Mon 23:18:26 62.2497 111.1978 175° South  Level FlightAware Approximate
Mon 23:19:26 62.1232 111.2207 175° South  Level FlightAware Approximate
Mon 23:20:26 61.9967 111.2433 175° South  Level FlightAware Approximate
Mon 23:21:26 61.8702 111.2658 175° South  Level FlightAware Approximate
Mon 23:22:26 61.7437 111.2880 175° South  Level FlightAware Approximate
Mon 23:23:26 61.6171 111.3101 175° South  Level FlightAware Approximate
Mon 23:24:26 61.4906 111.3320 175° South  Level FlightAware Approximate
Mon 23:25:26 61.3641 111.3538 175° South  Level FlightAware Approximate
Mon 23:26:26 61.2375 111.3753 175° South  Level FlightAware Approximate
Mon 23:27:26 61.1110 111.3967 175° South  Level FlightAware Approximate
Mon 23:28:26 60.9845 111.4179 175° South  Level FlightAware Approximate
Mon 23:29:26 60.8579 111.4389 175° South  Level FlightAware Approximate
Mon 23:30:26 60.7314 111.4598 175° South  Level FlightAware Approximate
Mon 23:31:26 60.6048 111.4805 175° South  Level FlightAware Approximate
Mon 23:32:26 60.4782 111.5011 174° South  Level FlightAware Approximate
Mon 23:33:26 60.3520 111.5272 175° South  Level FlightAware Approximate
Mon 23:34:26 60.2254 111.5473 176° South  Level FlightAware Approximate
Mon 23:35:26 60.0988 111.5672 176° South  Level FlightAware Approximate
Mon 23:36:26 59.9723 111.5870 176° South  Level FlightAware Approximate
Mon 23:37:26 59.8457 111.6067 176° South  Level FlightAware Approximate
Mon 23:38:26 59.7191 111.6261 176° South  Level FlightAware Approximate
Mon 23:39:26 59.5925 111.6455 176° South  Level FlightAware Approximate
Mon 23:40:26 59.4660 111.6647 176° South  Level FlightAware Approximate
Mon 23:41:26 59.3394 111.6837 176° South  Level FlightAware Approximate
Mon 23:42:26 59.2128 111.7026 176° South  Level FlightAware Approximate
Mon 23:43:26 59.0862 111.7214 176° South  Level FlightAware Approximate
Mon 23:44:26 58.9596 111.7400 176° South  Level FlightAware Approximate
Mon 23:45:26 58.8330 111.7585 176° South  Level FlightAware Approximate
Mon 23:46:26 58.7064 111.7769 176° South  Level FlightAware Approximate
Mon 23:47:26 58.5798 111.7951 176° South  Level FlightAware Approximate
Mon 23:48:26 58.4532 111.8132 176° South  Level FlightAware Approximate
Mon 23:49:26 58.3266 111.8312 174° South  Level FlightAware Approximate
Mon 23:50:26 58.2002 111.8546 176° South  Level FlightAware Approximate
Mon 23:51:26 58.0736 111.8722 176° South  Level FlightAware Approximate
Mon 23:52:26 57.9470 111.8897 176° South  Level FlightAware Approximate
Mon 23:53:26 57.8204 111.9071 176° South  Level FlightAware Approximate
Mon 23:54:26 57.6937 111.9244 176° South  Level FlightAware Approximate
Mon 23:55:26 57.5671 111.9415 176° South  Level FlightAware Approximate
Mon 23:56:26 57.4405 111.9585 176° South  Level FlightAware Approximate
Mon 23:57:26 57.3138 111.9754 176° South  Level FlightAware Approximate
Mon 23:58:26 57.1872 111.9922 176° South  Level FlightAware Approximate
Mon 23:59:26 57.0606 112.0089 176° South  Level FlightAware Approximate
Tue 00:00:26 56.9339 112.0255 176° South  Level FlightAware Approximate
Tue 00:01:26 56.8073 112.0419 176° South  Level FlightAware Approximate
Tue 00:02:26 56.6807 112.0583 176° South  Level FlightAware Approximate
Tue 00:03:26 56.5540 112.0745 176° South  Level FlightAware Approximate
Tue 00:04:26 56.4274 112.0906 176° South  Level FlightAware Approximate
Tue 00:05:26 56.3007 112.1066 176° South  Level FlightAware Approximate
Tue 00:06:26 56.1741 112.1226 176° South  Level FlightAware Approximate
Tue 00:07:26 56.0474 112.1384 176° South  Level FlightAware Approximate
Tue 00:08:26 55.9208 112.1541 176° South  Level FlightAware Approximate
Tue 00:09:26 55.7941 112.1697 176° South  Level FlightAware Approximate
Tue 00:10:26 55.6674 112.1852 176° South  Level FlightAware Approximate
Tue 00:11:26 55.5408 112.2006 176° South  Level FlightAware Approximate
Tue 00:12:26 55.4141 112.2159 176° South  Level FlightAware Approximate
Tue 00:13:26 55.2875 112.2311 176° South  Level FlightAware Approximate
Tue 00:14:26 55.1608 112.2462 176° South  Level FlightAware Approximate
Tue 00:15:26 55.0341 112.2612 176° South  Level FlightAware Approximate
Tue 00:16:26 54.9075 112.2761 176° South  Level FlightAware Approximate
Tue 00:17:26 54.7808 112.2909 176° South  Level FlightAware Approximate
Tue 00:18:26 54.6541 112.3056 176° South  Level FlightAware Approximate
Tue 00:19:26 54.5275 112.3203 176° South  Level FlightAware Approximate
Tue 00:20:26 54.4008 112.3348 177° South  Level FlightAware Approximate
Tue 00:21:26 54.2741 112.3459 176° South  Level FlightAware Approximate
Tue 00:22:26 54.1474 112.3605 176° South  Level FlightAware Approximate
Tue 00:23:26 54.0207 112.3751 176° South  Level FlightAware Approximate
Tue 00:24:26 53.8941 112.3896 176° South  Level FlightAware Approximate
Tue 00:25:26 53.7674 112.4040 176° South  Level FlightAware Approximate
Tue 00:26:26 53.6407 112.4184 176° South  Level FlightAware Approximate
Tue 00:27:26 53.5140 112.4326 176° South  Level FlightAware Approximate
Tue 00:28:26 53.3874 112.4467 176° South  Level FlightAware Approximate
Tue 00:29:26 53.2607 112.4608 176° South  Level FlightAware Approximate
Tue 00:30:26 53.1340 112.4748 176° South  Level FlightAware Approximate
Tue 00:31:26 53.0073 112.4887 176° South  Level FlightAware Approximate
Tue 00:32:26 52.8806 112.5025 176° South  Level FlightAware Approximate
Tue 00:33:26 52.7539 112.5163 176° South  Level FlightAware Approximate
Tue 00:34:26 52.6273 112.5299 176° South  Level FlightAware Approximate
Tue 00:35:26 52.5006 112.5435 176° South  Level FlightAware Approximate
Tue 00:36:26 52.3739 112.5570 176° South  Level FlightAware Approximate
Tue 00:37:26 52.2472 112.5704 176° South  Level FlightAware Approximate
Tue 00:38:26 52.1205 112.5838 176° South  Level FlightAware Approximate
Tue 00:39:26 51.9938 112.5971 176° South  Level FlightAware Approximate
Tue 00:40:26 51.8671 112.6103 176° South  Level FlightAware Approximate
Tue 00:41:26 51.7404 112.6234 176° South  Level FlightAware Approximate
Tue 00:42:26 51.6137 112.6364 176° South  Level FlightAware Approximate
Tue 00:43:26 51.4870 112.6494 176° South  Level FlightAware Approximate
Tue 00:44:26 51.3603 112.6623 176° South  Level FlightAware Approximate
Tue 00:45:26 51.2336 112.6751 176° South  Level FlightAware Approximate
Tue 00:46:26 51.1069 112.6879 176° South  Level FlightAware Approximate
Tue 00:47:26 50.9802 112.7006 176° South  Level FlightAware Approximate
Tue 00:48:26 50.8535 112.7132 176° South  Level FlightAware Approximate
Tue 00:49:26 50.7267 112.7258 176° South  Level FlightAware Approximate
Tue 00:50:26 50.6000 112.7383 176° South  Level FlightAware Approximate
Tue 00:51:26 50.4733 112.7507 176° South  Level FlightAware Approximate
Tue 00:52:26 50.3466 112.7631 176° South  Level FlightAware Approximate
Tue 00:53:26 50.2199 112.7754 176° South  Level FlightAware Approximate
Tue 00:54:26 50.0932 112.7876 176° South  Level FlightAware Approximate
Tue 00:55:26 49.9665 112.7998 176° South  Level FlightAware Approximate
Tue 00:56:26 49.8397 112.8119 176° South  Level FlightAware Approximate
Tue 00:57:26 49.7130 112.8239 176° South  Level FlightAware Approximate
Tue 00:58:26 49.5863 112.8359 177° South  Level FlightAware Approximate
Tue 00:59:26 49.4596 112.8478 177° South  Level FlightAware Approximate
Tue 01:00:26 49.3329 112.8596 177° South  Level FlightAware Approximate
Tue 01:01:26 49.2061 112.8714 177° South  Level FlightAware Approximate
Tue 01:02:26 49.0794 112.8831 177° South  Level FlightAware Approximate
Tue 01:03:26 48.9527 112.8948 177° South  Level FlightAware Approximate
Tue 01:04:26 48.8259 112.9064 177° South  Level FlightAware Approximate
Tue 01:05:26 48.6992 112.9180 179° South  Level FlightAware Approximate
Tue 01:06:26 48.5723 112.9207 179° South  Level FlightAware Approximate
Tue 01:07:26 48.4454 112.9255 179° South  Level FlightAware Approximate
Tue 01:08:26 48.3185 112.9304 179° South  Level FlightAware Approximate
Tue 01:09:26 48.1916 112.9352 179° South  Level FlightAware Approximate
Tue 01:10:26 48.0647 112.9400 179° South  Level FlightAware Approximate
Tue 01:11:26 47.9377 112.9447 179° South  Level FlightAware Approximate
Tue 01:12:26 47.8108 112.9495 179° South  Level FlightAware Approximate
Tue 01:13:26 47.6839 112.9542 179° South  Level FlightAware Approximate
Tue 01:14:26 47.5570 112.9589 179° South  Level FlightAware Approximate
Tue 01:15:26 47.4301 112.9635 179° South  Level FlightAware Approximate
Tue 01:16:26 47.3031 112.9682 179° South  Level FlightAware Approximate
Tue 01:17:26 47.1762 112.9728 179° South  Level FlightAware Approximate
Tue 01:18:26 47.0493 112.9774 179° South  Level FlightAware Approximate
Tue 01:19:26 46.9224 112.9820 179° South  Level FlightAware Approximate
Tue 01:20:26 46.7955 112.9866 148° Southeast  Level FlightAware Approximate
Tue 01:21:26 46.6893 113.0843 179° South  Level FlightAware Approximate
Tue 01:22:26 46.5623 113.0862 179° South  Level FlightAware Approximate
Tue 01:23:26 46.4354 113.0880 179° South  Level FlightAware Approximate
Tue 01:24:26 46.3084 113.0899 179° South  Level FlightAware Approximate
Tue 01:25:26 46.1815 113.0917 179° South  Level FlightAware Approximate
Tue 01:26:26 46.0545 113.0935 179° South  Level FlightAware Approximate
Tue 01:27:26 45.9276 113.0954 179° South  Level FlightAware Approximate
Tue 01:28:26 45.8006 113.0972 179° South  Level FlightAware Approximate
Tue 01:29:26 45.6737 113.0990 179° South  Level FlightAware Approximate
Tue 01:30:26 45.5467 113.1008 179° South  Level FlightAware Approximate
Tue 01:31:26 45.4198 113.1025 179° South  Level FlightAware Approximate
Tue 01:32:26 45.2928 113.1043 179° South  Level FlightAware Approximate
Tue 01:33:26 45.1659 113.1061 179° South  Level FlightAware Approximate
Tue 01:34:26 45.0389 113.1079 179° South  Level FlightAware Approximate
Tue 01:35:26 44.9120 113.1096 179° South  Level FlightAware Approximate
Tue 01:36:26 44.7850 113.1114 151° Southeast  Level FlightAware Approximate
Tue 01:37:26 44.6740 113.1979 151° Southeast  Level FlightAware Approximate
Tue 01:38:26 44.5628 113.2842 151° Southeast  Level FlightAware Approximate
Tue 01:39:26 44.4516 113.3701 151° Southeast  Level FlightAware Approximate
Tue 01:40:26 44.3404 113.4557 151° Southeast  Level FlightAware Approximate
Tue 01:41:26 44.2290 113.5409 151° Southeast  Level FlightAware Approximate
Tue 01:42:26 44.1176 113.6258 151° Southeast  Level FlightAware Approximate
Tue 01:43:26 44.0062 113.7104 151° Southeast  Level FlightAware Approximate
Tue 01:44:26 43.8947 113.7947 151° Southeast  Level FlightAware Approximate
Tue 01:45:26 43.7831 113.8787 152° Southeast  Level FlightAware Approximate
Tue 01:46:26 43.6715 113.9624 152° Southeast  Level FlightAware Approximate
Tue 01:47:26 43.5598 114.0457 152° Southeast  Level FlightAware Approximate
Tue 01:48:26 43.4476 114.1291 152° Southeast  Level FlightAware Approximate
Tue 01:49:26 43.3352 114.2122 152° Southeast  Level FlightAware Approximate
Tue 01:50:26 43.2228 114.2951 152° Southeast  Level FlightAware Approximate
Tue 01:51:26 43.1103 114.3776 152° Southeast  Level FlightAware Approximate
Tue 01:52:26 42.9977 114.4599 152° Southeast  Level FlightAware Approximate
Tue 01:53:26 42.8851 114.5418 152° Southeast  Level FlightAware Approximate
Tue 01:54:26 42.7724 114.6234 152° Southeast  Level FlightAware Approximate
Tue 01:55:26 42.6597 114.7048 152° Southeast  Level FlightAware Approximate
Tue 01:56:26 42.5469 114.7858 152° Southeast  Level FlightAware Approximate
Tue 01:57:26 42.4340 114.8666 152° Southeast  Level FlightAware Approximate
Tue 01:58:26 42.3211 114.9470 152° Southeast  Level FlightAware Approximate
Tue 01:59:26 42.2082 115.0272 152° Southeast  Level FlightAware Approximate
Tue 02:00:26 42.0952 115.1071 152° Southeast  Level FlightAware Approximate
Tue 02:01:26 41.9821 115.1867 152° Southeast  Level FlightAware Approximate
Tue 02:02:26 41.8690 115.2660 152° Southeast  Level FlightAware Approximate
Tue 02:03:26 41.7558 115.3451 153° Southeast  Level FlightAware Approximate
Tue 02:04:26 41.6426 115.4238 153° Southeast  Level FlightAware Approximate
Tue 02:05:26 41.5293 115.5023 153° Southeast  Level FlightAware Approximate
Tue 02:06:26 41.4160 115.5805 153° Southeast  Level FlightAware Approximate
Tue 02:07:26 41.3026 115.6585 153° Southeast  Level FlightAware Approximate
Tue 02:08:26 41.1891 115.7361 153° Southeast  Level FlightAware Approximate
Tue 02:09:26 41.0756 115.8135 153° Southeast  Level FlightAware Approximate
Tue 02:10:26 40.9621 115.8907 153° Southeast  Level FlightAware Approximate
Tue 02:11:26 40.8485 115.9675 153° Southeast  Level FlightAware Approximate
Tue 02:12:26 40.7348 116.0441 153° Southeast  Level FlightAware Approximate
Tue 02:13:26 40.6211 116.1205 153° Southeast  Level FlightAware Approximate
Tue 02:14:26 40.5074 116.1965 153° Southeast  Level FlightAware Approximate
Tue 02:15:26 40.3936 116.2724 153° Southeast  Level FlightAware Approximate
Tue 02:16:26 40.2797 116.3479 153° Southeast  Level FlightAware Approximate
Tue 02:17:26 40.1658 116.4233 136° Southeast  Level FlightAware Approximate
Tue 02:18:26 40.0816 116.5313 92° East  Level FlightAware Approximate
Tue 02:19:26 40.0770 116.6965 292° West  Level Estimated
Tue 02:20:26 40.9571 113.7006 111° Southeast  Level FlightAware Approximate
Tue 02:21:26 40.9111 113.8566 111° Southeast  Level FlightAware Approximate
Tue 02:22:26 40.8649 114.0123 111° Southeast  Level FlightAware Approximate
Tue 02:23:26 40.8185 114.1678 112° Southeast  Level FlightAware Approximate
Tue 02:24:26 40.7719 114.3231 112° Southeast  Level FlightAware Approximate
Tue 02:25:26 40.7250 114.4782 112° Southeast  Level FlightAware Approximate
Tue 02:26:26 40.6780 114.6331 112° Southeast  Level FlightAware Approximate
Tue 02:27:26 40.6307 114.7878 112° Southeast  Level FlightAware Approximate
Tue 02:28:26 40.5833 114.9422 112° Southeast  Level FlightAware Approximate
Tue 02:29:26 40.5356 115.0964 112° Southeast  Level FlightAware Approximate
Tue 02:30:26 40.4877 115.2504 112° Southeast  Level FlightAware Approximate
Tue 02:31:26 40.4397 115.4042 112° Southeast  Level FlightAware Approximate
Tue 02:32:26 40.3914 115.5577 112° Southeast  Level FlightAware Approximate
Tue 02:33:26 40.3429 115.7111 113° Southeast  Level FlightAware Approximate
Tue 02:34:26 40.2942 115.8642 113° Southeast  Level FlightAware Approximate
Tue 02:35:26 40.2453 116.0171 113° Southeast  Level FlightAware Approximate
Tue 02:36:26 40.1962 116.1697 113° Southeast  Level FlightAware Approximate
Tue 02:37:26 40.1470 116.3222 113° Southeast  Level FlightAware Approximate
Tue 02:38:26 40.0978 116.4746 102° East  Level FlightAware Approximate
Tue 02:39:26 40.0718 116.6364 282° West  Level Estimated
Tue 02:40:26 40.0978 116.4746 102° East  Level Estimated
Tue 02:41:26 40.0718 116.6364 282° West  Level Estimated
Tue 02:42:26 40.0978 116.4746 102° East  Level Estimated
Tue 02:43:26 40.0718 116.6364 282° West  Level Estimated
Tue 02:44:26 40.0978 116.4746 110° East  Level Estimated
Tue 02:45:26 40.0667 116.5833 North  Level FlightAware Approximate
Tue 02:46:26 40.1928 116.5949 184° South  Level Estimated
Tue 02:47:26 40.0667 116.5833 North  Level FlightAware Approximate
Tue 02:48:26 40.1928 116.5949 184° South  Level Estimated
Tue 02:49:26 40.0667 116.5833 184° South  Level FlightAware Approximate

Login

Don't have an account? Register now (free) for customized features, flight alerts, and more!